Date,TemperatureHighF,TemperatureAvgF,TemperatureLowF,DewpointHighF,DewpointAvgF,DewpointLowF,HumidityHigh,HumidityAvg,HumidityLow,PressureMaxIn,PressureMinIn,WindSpeedMaxMPH,WindSpeedAvgMPH,GustSpeedMaxMPH,PrecipitationSumIn
2012-2-22,41.2,41.0,40.8,25.0,24.6,24.3,53,52,51,29.89,29.89,1,0,2,0.00
2012-2-23,55.2,41.2,29.3,43.0,28.9,20.3,100,63,40,30.07,29.73,9,1,14,0.08
2012-2-24,36.9,30.6,28.2,32.2,23.4,20.1,96,75,51,29.98,29.40,2,0,3,0.00
2012-2-25,45.9,30.7,22.8,31.5,18.1,9.3,97,60,47,29.91,29.29,9,2,14,0.08
2012-2-26,35.6,24.3,16.0,10.1,0.0,-9.1,59,37,19,30.55,29.91,7,1,14,0.00
2012-3-11,53.6,37.8,25.2,27.4,19.3,13.6,67,49,25,30.63,30.39,2,0,4,0.00
2012-3-12,66.4,47.6,35.2,33.2,29.4,26.0,69,53,23,30.44,30.31,3,0,6,0.00
2012-3-13,67.5,50.4,39.7,47.9,39.6,32.1,94,68,48,30.29,30.05,2,1,5,0.00
2012-3-14,44.2,39.1,33.1,42.9,37.6,32.1,97,95,87,30.45,30.17,2,0,3,0.00
2012-3-15,46.8,36.4,31.1,31.9,29.2,26.9,96,76,52,30.55,30.45,2,0,3,0.00
2012-3-16,38.1,35.2,32.5,37.6,32.9,27.6,100,92,80,30.52,30.27,1,0,2,0.07
2012-3-17,56.5,40.4,23.4,43.6,36.4,-7.4,100,87,25,30.55,30.34,4,0,5,0.02
2012-3-18,81.0,54.8,37.4,46.3,40.7,36.7,100,66,21,30.49,30.30,2,0,8,0.00
2012-3-19,76.8,57.0,44.8,49.6,43.7,39.6,88,64,35,30.49,30.30,3,0,8,0.00
2012-3-20,83.7,55.4,39.2,51.2,44.9,37.6,97,72,30,30.49,30.38,3,0,5,0.00
2012-3-21,86.5,64.0,48.7,52.2,48.2,43.1,96,61,26,30.52,30.38,2,0,6,0.00
2012-3-22,87.8,64.5,49.8,53.7,49.7,40.5,96,65,20,30.41,30.18,3,0,7,0.00
2012-3-23,75.4,59.7,47.7,51.8,28.2,10.8,71,36,10,30.33,30.20,3,1,11,0.00
2012-3-24,57.9,49.9,42.8,34.7,22.5,9.9,64,36,17,30.35,30.20,2,0,8,0.00
2012-3-25,46.2,41.7,37.4,41.6,38.7,34.2,100,89,63,30.67,29.89,1,0,4,0.12
2012-3-26,43.2,35.9,26.6,40.0,20.2,-5.3,100,58,23,30.13,28.35,3,1,14,0.01
2012-3-27,51.8,32.9,19.8,8.3,-0.7,-9.8,44,24,16,30.33,30.12,3,1,12,0.00
2012-3-28,45.9,36.6,28.9,34.7,23.1,0.3,91,61,24,30.29,29.75,2,0,8,0.02
2012-3-29,39.9,36.0,33.4,34.6,30.4,25.2,95,81,62,30.05,29.73,2,0,8,0.00
2012-3-30,51.1,36.4,29.1,26.7,14.5,4.3,81,44,18,30.20,30.04,3,1,11,0.00
2012-3-31,54.9,37.3,30.0,26.0,19.2,13.0,81,49,21,30.22,30.04,2,0,6,0.00
2012-4-1,53.6,38.8,27.1,36.4,26.7,18.0,93,67,26,30.05,29.81,2,0,6,0.04
2012-4-2,54.3,40.4,30.4,36.6,21.6,3.4,95,56,16,29.97,29.78,3,1,12,0.00
2012-4-3,61.5,42.2,29.5,21.6,11.2,2.4,48,30,16,29.98,29.88,3,1,9,0.00
2012-4-4,60.6,46.4,33.6,32.2,21.6,10.9,74,41,18,29.89,29.64,4,1,14,0.00
2012-4-5,53.2,38.5,30.0,27.8,20.8,16.5,70,50,26,30.04,29.78,3,1,11,0.00
2012-4-6,58.5,38.2,27.1,22.0,17.3,8.4,74,47,16,30.14,30.03,3,1,10,0.00
2012-4-7,52.9,40.3,29.5,29.2,19.3,13.4,70,45,22,30.19,30.10,2,1,9,0.00
2012-4-8,46.6,40.4,35.1,32.5,25.5,19.3,72,56,36,30.14,29.74,2,0,9,0.00
2012-4-9,50.4,42.8,34.0,34.9,31.4,24.6,81,64,51,29.74,29.59,3,1,14,0.00
2012-4-10,58.1,45.0,34.5,34.9,31.6,28.6,80,61,38,29.91,29.71,4,1,8,0.00
2012-4-11,60.6,43.5,32.0,39.4,32.5,26.4,90,69,29,30.06,29.91,2,0,6,0.00
2012-4-12,52.9,42.8,34.0,42.6,36.1,30.9,97,79,46,30.25,30.05,2,0,5,0.01
2012-4-13,69.3,47.1,31.3,37.4,26.1,13.7,97,54,13,30.30,30.17,3,1,10,0.00
2012-4-14,69.6,53.1,37.2,30.9,23.9,14.9,63,36,15,30.30,30.13,2,0,8,0.00
2012-4-15,78.3,61.2,44.6,51.0,40.1,27.0,70,47,31,30.17,30.06,3,0,9,0.00
2012-4-16,94.8,72.3,56.1,59.1,52.3,40.8,87,54,18,30.19,30.05,2,1,8,0.00
2012-4-17,81.0,67.6,53.4,53.4,37.5,17.2,78,39,12,30.33,30.06,3,1,10,0.00
2012-4-18,63.5,50.1,38.3,36.7,31.4,25.3,77,51,24,30.42,30.30,2,0,5,0.00
2012-4-19,76.1,51.4,35.6,42.2,36.5,21.0,100,63,15,30.31,30.15,2,0,9,0.00
2012-4-20,83.3,61.3,43.5,48.4,41.3,30.9,91,55,16,30.17,30.04,2,1,11,0.00
2012-4-21,79.7,64.2,54.0,55.0,50.1,44.3,81,62,35,30.06,29.85,2,1,8,0.00
2012-4-22,57.6,47.7,39.2,51.4,44.3,38.4,100,89,73,30.09,29.88,3,1,8,0.87
2012-4-23,52.7,43.3,36.0,51.3,42.3,34.4,100,96,94,29.97,29.51,6,2,11,1.54
2012-4-24,56.5,47.6,43.7,47.8,35.7,26.7,100,66,35,29.85,29.55,3,1,11,0.01
2012-4-25,59.2,46.8,36.9,39.6,33.0,26.1,95,62,30,30.02,29.84,3,1,9,0.00
2012-4-26,61.0,46.4,34.7,43.7,34.0,24.8,95,67,27,30.09,29.76,3,1,12,0.13
2012-4-27,50.4,42.9,32.9,43.7,33.7,18.0,95,72,42,30.11,29.64,5,2,19,0.21
2012-4-28,54.7,39.9,29.8,21.0,14.5,3.8,58,38,16,30.26,30.11,4,1,15,0.00
2012-4-29,58.5,41.8,30.0,22.5,12.8,3.8,66,34,15,30.36,30.17,4,1,17,0.00
2012-4-30,64.2,46.7,30.9,35.3,21.9,11.6,65,40,16,30.48,30.35,3,0,6,0.00
2012-5-1,46.4,42.8,40.8,41.8,39.5,34.2,97,89,63,30.37,30.30,2,0,8,0.28
2012-5-2,48.9,44.4,40.8,45.3,42.5,39.9,97,93,85,30.41,30.33,0,0,4,0.01
2012-5-3,53.6,47.6,42.6,48.1,45.4,41.5,100,92,79,30.39,30.28,0,0,3,0.01
2012-5-4,52.0,48.4,46.2,50.6,48.0,44.6,100,98,94,30.29,30.14,0,0,4,0.14
2012-5-5,70.0,55.1,46.0,53.9,48.1,40.7,100,80,37,30.94,30.13,1,0,4,0.00
2012-5-6,59.2,47.0,42.3,47.8,41.9,39.1,100,84,51,30.34,30.27,1,0,4,0.00
2012-5-7,75.0,55.5,38.5,45.9,34.5,14.9,100,54,11,30.35,30.25,4,1,6,0.00
2012-5-8,51.8,47.3,45.5,49.0,44.5,38.3,100,90,60,30.27,30.05,3,0,6,0.71
2012-5-9,61.3,53.3,45.3,59.4,51.7,43.7,100,95,86,30.04,29.79,2,0,3,0.01
2012-5-10,66.2,54.8,46.8,57.4,50.4,42.3,100,86,50,29.81,29.55,3,0,4,0.72
2012-5-11,61.9,51.8,44.4,44.0,36.3,23.9,90,59,24,30.21,29.81,5,1,8,0.00
2012-5-12,79.2,59.9,39.7,47.6,37.6,22.2,92,51,16,30.32,30.20,4,1,9,0.00
2012-5-13,82.6,64.3,47.1,55.7,45.3,32.5,80,53,29,30.35,30.25,3,0,6,0.00
2012-5-14,65.8,58.0,53.4,57.9,54.3,50.4,97,88,71,30.39,30.31,1,0,4,0.02
2012-5-15,72.0,61.0,55.2,61.0,56.6,53.5,100,87,56,30.35,30.17,1,0,7,0.44
2012-5-16,69.6,62.0,56.3,63.3,59.3,56.3,100,91,71,30.17,29.99,1,0,6,0.12
2012-5-17,71.6,57.5,45.0,59.0,41.3,26.6,100,61,22,30.35,30.03,3,1,11,0.33
2012-5-18,77.9,57.4,41.4,48.0,39.2,27.1,92,57,19,30.45,30.33,3,0,7,0.00
2012-5-19,86.7,64.7,46.9,54.4,45.7,32.7,90,56,20,30.39,30.30,2,0,7,0.00
2012-5-20,91.4,69.3,52.9,58.1,50.4,41.9,93,57,20,30.51,30.37,2,0,9,0.00
2012-5-21,84.2,65.8,52.7,60.7,49.8,40.6,96,62,26,30.50,30.30,27,1,28,0.01
2012-5-22,60.8,58.5,57.7,59.4,57.6,56.9,97,97,95,30.30,30.20,0,0,4,0.01
2012-5-23,80.4,67.3,60.1,69.3,61.9,58.9,96,84,54,30.24,30.05,2,0,4,0.04
2012-5-24,78.3,66.9,58.5,64.5,60.4,57.1,97,81,57,30.47,30.30,4,1,5,0.00
2012-5-25,66.7,61.5,56.8,62.6,59.4,56.3,100,93,84,30.47,30.27,2,0,4,0.02
2012-5-26,88.5,71.3,60.3,67.9,58.6,43.6,100,69,22,30.32,30.24,4,0,5,0.00
2012-5-27,83.8,67.7,55.0,56.7,51.8,48.0,89,60,34,30.39,30.22,3,1,4,0.00
2012-5-28,82.8,69.9,54.7,59.9,53.9,47.3,82,59,37,30.25,30.12,3,1,11,0.00
2012-5-29,61.2,58.7,55.9,59.5,57.3,51.8,100,95,77,30.19,29.91,1,0,6,0.43
2012-5-30,82.4,65.0,58.1,66.4,60.6,56.6,100,88,47,29.94,29.88,2,0,4,0.08
2012-5-31,83.7,67.3,56.5,60.5,54.6,42.1,97,69,26,30.15,29.91,3,0,11,0.01
2012-6-1,79.2,61.8,48.9,51.7,44.9,31.9,90,59,21,30.29,30.15,2,0,24,0.00
2012-6-2,55.4,53.6,51.4,53.5,51.3,44.6,96,92,67,30.25,29.95,2,0,8,1.26
2012-6-3,56.1,53.0,51.3,54.5,51.5,50.2,96,95,92,29.96,29.90,2,0,11,0.15
2012-6-4,53.4,50.2,47.8,51.9,49.1,47.3,100,96,91,30.02,29.85,3,0,12,0.27
2012-6-5,62.4,52.3,47.5,53.6,49.9,47.4,100,92,68,30.14,28.94,2,0,9,0.05
2012-6-6,59.4,50.7,47.7,53.0,49.3,47.4,100,95,75,30.18,30.12,1,0,5,0.01
2012-6-7,68.4,54.5,51.3,55.0,52.4,43.1,96,92,86,30.16,29.00,1,0,3,0.00
2012-6-8,81.1,58.9,0.0,61.0,54.5,50.2,100,75,38,30.13,29.92,6,0,13,0.01
2012-6-9,79.9,62.6,50.7,56.1,49.6,39.9,100,68,24,30.16,29.96,4,1,10,0.00
2012-6-10,54.5,52.5,50.9,51.0,49.0,45.9,96,88,75,30.24,30.15,0,0,0,0.00
2012-6-11,78.6,64.8,54.7,58.4,53.7,50.1,90,69,43,30.50,30.38,2,0,6,0.00
2012-6-12,81.3,67.1,57.2,62.1,57.0,51.3,94,72,46,30.37,30.15,2,0,6,0.07
2012-6-13,70.3,63.7,57.7,66.9,61.7,56.9,97,93,83,30.30,30.10,0,0,5,0.67
2012-6-14,81.5,63.0,52.2,57.6,53.4,46.1,100,75,36,30.50,30.30,2,0,8,0.01
2012-6-15,83.5,63.3,48.9,56.4,51.3,42.1,93,69,28,30.55,30.48,2,0,8,0.00
2012-6-16,79.0,61.3,50.7,58.3,53.2,49.2,95,77,43,30.58,30.49,2,0,10,0.00
2012-6-17,78.8,57.4,48.2,55.7,49.7,47.4,97,79,38,30.50,30.32,4,0,6,0.00
2012-6-18,60.6,54.6,50.9,52.5,50.0,48.4,95,85,71,30.37,30.34,1,0,4,0.00
2012-6-19,77.7,65.7,54.1,64.7,59.1,52.5,100,81,53,30.35,30.18,4,0,5,0.00
2012-6-20,98.4,78.8,64.6,70.1,66.3,62.2,97,70,36,30.19,30.07,3,0,9,0.00
2012-6-21,93.0,78.3,70.2,72.8,68.4,64.4,89,73,42,30.08,30.00,4,0,6,0.00
2012-7-8,79.2,68.7,60.8,54.8,50.7,47.9,66,53,38,30.09,30.01,3,0,6,0.00
2012-7-9,85.5,67.5,55.8,55.5,50.1,43.6,92,57,28,30.21,30.08,3,1,14,0.00
2012-7-10,87.8,67.5,53.1,55.6,50.1,42.7,89,58,24,30.30,30.19,14,1,14,0.00
2012-7-11,92.5,67.1,57.9,60.7,55.4,50.0,94,71,25,30.40,30.29,4,0,5,0.00
2012-7-12,92.8,71.4,61.9,65.0,61.2,55.2,92,73,34,30.39,30.35,2,1,6,0.00
2012-7-23,71.1,68.3,66.2,66.2,62.8,60.4,88,83,70,30.27,30.23,0,0,2,0.00
2012-7-24,88.9,72.4,60.1,74.8,65.4,53.2,96,80,46,29.97,29.75,4,0,8,0.40
2012-7-25,85.3,68.6,59.0,57.3,54.2,51.3,82,62,32,30.02,29.91,3,1,9,0.00
2012-7-26,72.7,68.0,64.0,63.8,62.2,58.8,95,82,65,29.93,29.84,0,0,1,0.20
2012-7-27,68.7,66.2,64.6,66.5,65.5,64.0,100,98,93,30.00,29.96,0,0,2,0.33
2012-7-28,82.2,70.1,63.9,70.5,66.0,62.1,100,88,61,30.22,30.11,2,0,4,0.02
2012-7-29,68.9,65.3,59.9,67.0,63.9,58.8,100,95,91,30.29,30.20,55,0,100,0.45
2012-7-30,89.8,71.7,59.9,69.5,63.8,58.8,100,79,44,30.32,30.25,3,0,6,0.01
2012-7-31,89.2,71.9,62.4,64.5,61.5,54.3,96,73,37,30.30,30.14,2,1,8,0.00
2012-8-1,85.1,71.7,64.0,69.9,65.6,61.5,94,82,56,30.85,30.03,3,0,8,0.00
2012-8-2,93.2,77.2,68.2,71.0,67.8,64.8,96,77,42,30.08,30.03,2,1,6,0.00
2012-8-3,94.6,77.0,66.4,71.8,67.5,62.6,96,76,39,30.30,30.09,3,0,7,0.00
2012-8-4,95.5,77.0,66.9,70.4,66.4,63.7,95,73,41,31.17,30.30,3,0,6,0.00
2012-8-5,92.7,73.2,66.2,73.5,67.1,63.7,93,83,49,31.14,30.09,3,0,9,0.17
2012-8-6,85.8,73.3,60.6,71.0,59.6,54.6,96,65,40,30.20,30.09,3,1,9,0.38
2012-8-7,87.4,70.0,60.6,64.3,57.9,54.8,88,68,38,30.92,30.14,3,0,5,0.38
2012-8-8,92.1,71.0,61.7,65.5,61.4,57.6,97,76,34,30.20,30.15,3,1,49,0.00
2012-8-18,66.4,65.3,64.6,64.9,63.6,62.5,96,94,93,30.03,30.01,0,0,0,0.00
2012-8-19,81.3,65.0,54.0,61.6,55.5,51.6,96,74,40,30.19,30.10,4,0,4,0.00
2012-8-20,83.1,67.0,56.7,62.5,57.6,53.0,97,76,38,30.14,30.03,4,0,6,0.00
2012-8-21,86.7,69.8,59.9,62.9,57.9,51.4,94,70,35,30.29,30.09,4,0,5,0.00
2012-8-22,86.9,67.7,55.8,62.6,55.7,47.9,96,70,30,30.35,30.29,3,0,5,0.00
2012-8-23,89.8,70.5,59.5,63.0,59.7,53.3,95,72,34,30.34,30.27,3,0,5,0.00
2012-8-24,89.6,72.1,62.2,66.4,61.6,58.9,95,73,39,30.45,30.32,3,0,4,0.00
2012-8-25,70.2,64.5,62.4,65.1,61.3,59.2,92,89,84,30.53,30.44,0,0,0,0.00
2012-9-14,65.3,64.4,63.1,61.3,60.4,59.7,91,87,83,30.24,30.22,4,0,4,0.00
2012-9-15,78.3,62.9,51.3,59.7,51.3,43.2,96,69,36,30.23,30.17,13,1,13,0.01
2012-9-16,72.3,55.2,45.0,45.6,40.1,32.2,94,61,26,30.25,30.17,9,1,9,0.00
2012-9-17,79.3,58.3,43.9,58.0,47.9,39.6,98,72,35,30.27,30.20,5,1,5,0.00
2012-9-18,68.4,61.1,53.6,66.9,58.4,51.9,97,91,70,30.23,29.83,13,3,13,0.43
2012-9-19,75.7,62.0,47.3,67.6,50.4,37.3,96,70,29,30.40,29.83,11,2,13,0.13
2012-9-20,72.3,53.0,39.7,47.7,42.1,34.7,97,71,29,30.47,30.34,8,1,8,0.00
2012-9-21,71.8,53.4,43.3,52.4,47.5,42.0,98,82,46,30.36,30.25,8,1,8,0.00
2012-9-22,77.9,59.7,47.3,61.4,55.2,46.8,98,86,49,30.26,30.00,6,1,6,0.00
2012-9-23,74.1,59.8,47.3,59.5,49.2,36.6,98,73,30,30.25,29.97,10,1,10,0.01
2012-9-24,70.3,61.4,43.7,48.5,42.1,39.9,98,55,33,30.31,30.22,4,1,4,0.00
2012-9-25,70.3,53.2,42.1,45.8,43.8,39.9,97,79,33,30.31,30.26,2,2,3,0.00
2012-9-26,61.9,56.5,46.6,58.6,54.1,45.8,97,92,88,30.29,30.17,4,1,4,0.02
2012-9-27,64.6,61.1,51.8,58.3,47.9,42.2,98,66,44,30.44,30.18,4,2,4,0.02
2012-9-28,64.6,54.1,45.9,48.8,45.1,42.2,98,77,44,30.44,30.25,4,2,4,0.69
2012-9-29,55.2,51.1,47.8,53.2,50.0,47.3,98,96,92,30.25,30.06,10,1,10,0.05
2012-9-30,56.1,53.5,50.9,55.6,52.2,49.8,98,95,94,30.10,29.83,115,0,115,0.20
2012-10-1,64.2,55.2,50.2,54.4,51.5,49.1,96,88,68,30.08,29.80,8,2,8,0.02
2012-10-2,55.8,53.9,53.6,53.2,52.2,51.9,94,94,91,30.10,30.07,2,0,4,0.02
2012-10-3,53.8,53.8,53.8,52.1,52.1,52.1,94,94,94,30.09,30.09,0,0,0,0.02
2012-10-4,53.8,53.8,53.8,52.1,52.1,52.1,94,94,94,30.09,30.09,0,0,0,0.02
2012-10-5,53.8,53.8,53.8,52.1,52.1,52.1,94,94,94,30.09,30.09,0,0,0,0.02
2012-10-6,75.7,60.1,46.4,60.8,55.5,41.2,97,86,55,30.08,29.88,125,2,125,0.02
2012-10-7,58.8,48.3,41.5,44.3,40.5,37.3,94,76,48,30.23,30.07,4,1,4,0.17
2012-10-8,64.0,46.7,39.2,46.0,41.0,35.2,97,83,40,30.50,30.21,4,0,4,0.04
2012-10-9,61.2,46.3,37.9,47.1,42.8,37.4,98,88,57,30.50,30.33,5,1,5,0.00
2012-10-10,51.8,47.9,42.8,50.5,46.4,41.5,96,95,91,30.34,29.87,4,0,4,0.24
2012-10-11,62.6,48.6,42.3,40.8,33.2,26.9,87,58,26,30.25,29.95,14,2,14,0.00
2012-10-12,57.9,43.6,30.4,40.0,30.0,19.8,86,60,31,30.50,30.10,13,2,13,0.01
2012-10-13,56.1,40.0,28.2,29.6,24.1,20.3,79,56,26,30.59,30.44,11,1,11,0.00
2012-10-14,50.9,45.0,36.9,48.1,41.6,28.0,95,88,58,30.46,30.09,11,0,11,0.01
2012-10-15,68.0,57.1,45.1,64.3,54.3,43.5,97,91,74,30.09,29.77,6,0,6,0.02
2012-10-16,59.4,50.9,47.1,57.5,41.4,32.6,96,72,48,29.85,29.73,14,3,14,0.00
2012-10-17,47.1,47.1,47.1,33.5,33.5,33.5,59,59,59,29.85,29.85,4,4,14,0.00
2012-10-18,47.1,47.1,47.1,33.5,33.5,33.5,59,59,59,29.85,29.85,4,4,14,0.00
2012-10-19,47.1,47.1,47.1,33.5,33.5,33.5,59,59,59,29.85,29.85,4,4,14,0.00
2012-10-20,56.7,48.7,45.1,55.5,46.9,43.5,97,94,90,30.06,29.73,2,0,2,0.00
2012-10-21,68.0,58.6,48.6,64.4,55.4,40.6,96,89,73,29.73,29.52,7,1,7,0.02
2012-10-22,56.5,42.5,32.9,42.2,32.8,28.2,87,70,47,29.94,29.55,12,2,12,0.28
2012-10-23,66.7,50.3,40.6,40.3,36.5,29.5,82,61,28,30.10,29.94,7,1,7,0.00
2012-10-24,45.7,37.1,34.3,35.4,28.6,23.0,88,71,60,30.18,30.10,4,0,4,0.00
2012-10-31,60.3,47.0,41.5,38.9,37.2,34.5,84,70,40,29.50,29.44,4,0,5,0.00
2012-11-1,60.8,45.9,40.3,39.9,34.2,31.8,85,65,39,29.59,29.46,4,0,5,0.00
2012-11-2,51.3,44.3,40.5,33.5,30.8,28.8,72,59,47,29.71,29.59,5,1,8,0.00
2012-11-3,60.6,43.8,34.7,34.3,30.8,26.8,85,63,29,29.81,29.70,4,1,10,0.01
2012-11-4,42.1,35.1,30.7,27.0,25.4,23.8,79,68,53,29.87,29.82,2,0,4,0.01
2012-11-5,38.3,32.9,25.3,26.2,18.9,12.1,74,57,39,30.03,29.87,2,0,4,0.00
2012-11-6,61.2,31.1,0.0,34.6,13.5,5.1,69,49,19,30.19,0.00,4,0,5,0.00
2012-11-7,25.2,25.0,24.8,12.5,12.4,12.2,58,58,58,30.16,30.15,2,0,3,0.00
2012-11-19,49.8,32.4,23.2,28.8,20.5,11.9,82,62,41,30.59,30.20,2,0,4,0.00
2012-11-20,51.3,35.0,25.0,31.7,22.1,18.8,82,61,34,30.21,30.09,2,0,5,0.00
2012-11-21,46.2,37.6,31.1,31.4,25.8,21.2,82,63,51,30.22,30.11,3,0,4,0.00
2012-11-22,53.4,38.2,29.8,40.4,30.6,25.3,91,75,55,30.21,30.05,3,0,4,0.00
2012-11-23,57.6,42.7,30.9,44.2,33.7,27.2,91,73,39,30.05,29.55,4,0,6,0.00
2012-11-24,48.9,38.5,28.8,39.4,23.9,11.4,88,58,31,29.55,29.42,5,1,11,0.01
2012-11-25,35.8,29.6,26.4,15.0,8.4,-1.9,58,41,24,29.74,29.51,8,2,16,0.00
2012-11-26,40.8,29.8,23.0,25.1,15.3,10.4,71,55,40,30.17,29.73,3,0,12,0.00
2012-11-27,37.6,29.2,24.3,22.3,16.4,12.3,67,59,46,30.25,30.09,3,0,5,0.00
2012-11-28,36.0,28.3,23.4,18.9,15.1,12.9,68,58,40,30.21,30.05,2,0,4,0.00
2012-11-29,40.3,32.7,24.3,27.0,16.7,7.5,72,53,35,30.15,29.99,9,1,15,0.34
2012-11-30,30.9,23.6,19.0,17.1,-2.4,-11.4,56,32,19,30.51,30.15,5,2,12,0.00
2012-12-1,27.3,22.4,19.4,19.7,-4.3,-11.6,78,31,19,30.53,30.38,5,1,8,0.00
2012-12-2,44.1,35.3,25.3,41.9,31.8,19.5,93,87,77,30.45,29.91,8,1,14,0.44
2012-12-3,51.3,42.8,31.5,44.1,36.2,27.4,94,79,54,30.23,29.90,9,2,18,0.01
2012-12-4,49.6,41.9,29.3,47.8,39.6,25.9,94,91,86,30.24,29.85,2,0,4,0.00
2012-12-5,54.1,43.0,27.9,52.0,32.7,9.5,95,69,44,29.99,29.71,9,4,21,0.08
2012-12-6,38.3,28.7,22.8,16.0,12.4,9.4,67,51,31,30.19,29.99,6,1,11,0.00
2012-12-7,37.0,31.0,23.9,30.4,22.0,13.8,89,70,53,30.17,29.93,9,2,14,0.00
2012-12-8,36.5,34.0,32.4,33.6,31.1,29.5,90,89,88,29.93,29.77,3,1,6,0.22
2012-12-9,43.3,36.0,30.6,34.2,28.2,22.6,91,75,46,30.20,29.82,4,2,10,0.01
2012-12-10,35.6,33.0,31.1,32.4,29.8,23.7,89,88,68,30.11,29.39,3,1,8,0.21
2012-12-11,42.3,35.0,27.7,38.5,26.3,14.6,94,71,51,30.00,29.44,8,2,17,0.14
2012-12-12,28.2,26.2,24.8,15.8,15.0,14.0,67,62,56,30.07,30.00,2,0,4,0.00
2012-12-13,39.4,29.2,23.9,23.8,19.1,17.1,80,67,44,30.33,30.14,5,1,9,0.00
2012-12-14,43.2,33.2,24.6,23.7,20.0,17.4,78,59,37,30.13,29.93,8,2,11,0.00
2012-12-15,37.9,28.6,20.5,18.8,7.6,-3.7,64,43,17,30.27,30.04,6,1,11,0.00
2012-12-16,20.8,19.4,18.7,12.7,6.4,-6.8,74,58,31,30.26,30.07,4,2,7,0.00
2012-12-17,30.4,24.8,19.6,26.7,19.3,12.5,87,79,74,30.07,29.83,5,3,9,0.00
2012-12-18,36.3,34.2,30.7,32.9,31.0,27.3,89,88,87,29.81,29.35,4,1,8,0.71
2012-12-19,35.8,35.2,34.5,32.6,32.1,31.3,89,88,88,29.40,29.35,1,0,5,0.11
2012-12-21,43.5,39.9,25.2,41.0,37.6,19.0,93,91,77,30.55,29.66,5,4,13,2.49